createdAt,value
2024-02-24T00:01:50.733Z,94852.88
2024-02-24T00:04:18.655Z,94861.10
2024-02-24T00:06:45.570Z,94856.49
2024-02-24T00:09:12.605Z,94852.72
2024-02-24T00:11:39.624Z,94848.79
2024-02-24T00:14:07.074Z,94844.13
2024-02-24T00:16:34.231Z,94853.73
2024-02-24T00:19:01.253Z,94856.05
2024-02-24T00:21:28.695Z,94856.27
2024-02-24T00:23:56.009Z,94854.34
2024-02-24T00:26:23.244Z,94857.26
2024-02-24T00:28:50.729Z,94861.79
2024-02-24T00:31:18.199Z,94867.77
2024-02-24T00:33:45.481Z,94871.27
2024-02-24T00:36:12.536Z,94870.96
2024-02-24T00:38:40.162Z,94871.61
2024-02-24T00:41:07.630Z,94876.70
2024-02-24T00:43:34.492Z,94871.17
2024-02-24T00:46:01.698Z,94867.85
2024-02-24T00:48:30.286Z,94870.55
2024-02-24T00:50:57.789Z,94869.66
2024-02-24T00:53:25.797Z,94872.15
2024-02-24T00:55:55.558Z,94867.11
2024-02-24T00:58:24.820Z,94868.42
2024-02-24T01:00:51.674Z,94864.33
2024-02-24T01:03:21.200Z,94863.04
2024-02-24T01:05:48.279Z,94862.94
2024-02-24T01:08:15.536Z,94860.50
2024-02-24T01:10:42.610Z,94852.87
2024-02-24T01:13:09.605Z,94863.45
2024-02-24T01:15:36.548Z,94859.38
2024-02-24T01:18:05.918Z,94867.77
2024-02-24T01:20:38.480Z,94869.99
2024-02-24T01:23:08.257Z,94864.05
2024-02-24T01:25:35.558Z,94860.45
2024-02-24T01:28:02.515Z,94864.15
2024-02-24T01:30:29.482Z,94863.64
2024-02-24T01:32:56.548Z,94855.52
2024-02-24T01:35:23.472Z,94857.32
2024-02-24T01:37:50.424Z,94862.60
2024-02-24T01:40:17.337Z,94862.81
2024-02-24T01:42:47.260Z,94858.99
2024-02-24T01:45:15.717Z,94852.16
2024-02-24T01:47:46.140Z,94843.80
2024-02-24T01:50:16.267Z,94835.15
2024-02-24T01:52:50.949Z,94828.83
2024-02-24T01:55:19.702Z,94833.29
2024-02-24T01:57:50.733Z,94833.20
2024-02-24T02:00:20.453Z,94828.16
2024-02-24T02:02:48.788Z,94813.06
2024-02-24T02:05:15.875Z,94808.05
2024-02-24T02:07:45.575Z,94805.73
2024-02-24T02:10:12.623Z,94813.42
2024-02-24T02:12:39.748Z,94812.52
2024-02-24T02:15:07.615Z,94832.64
2024-02-24T02:17:37.790Z,94827.66
2024-02-24T02:20:05.898Z,94832.23
2024-02-24T02:22:36.678Z,94849.42
2024-02-24T02:25:03.986Z,94860.95
2024-02-24T02:27:31.214Z,94856.30
2024-02-24T02:30:13.592Z,94853.23
2024-02-24T02:32:40.845Z,94858.19
2024-02-24T02:35:18.941Z,94848.52
2024-02-24T02:37:53.749Z,94855.20
2024-02-24T02:40:20.820Z,94850.21
2024-02-24T02:42:50.832Z,94864.14
2024-02-24T02:45:24.673Z,94865.79
2024-02-24T02:47:55.127Z,94866.54
2024-02-24T02:50:22.802Z,94865.06
2024-02-24T02:52:50.250Z,94857.22
2024-02-24T02:55:28.917Z,94862.52
2024-02-24T02:57:55.812Z,94869.11
2024-02-24T03:00:26.092Z,94871.47
2024-02-24T03:02:53.162Z,94874.16
2024-02-24T03:05:23.632Z,94878.66
2024-02-24T03:07:55.783Z,94879.85
2024-02-24T03:10:27.902Z,94865.87
2024-02-24T03:13:05.546Z,94875.61
2024-02-24T03:15:37.154Z,94876.59
2024-02-24T03:18:07.070Z,94872.60
2024-02-24T03:20:37.330Z,94861.49
2024-02-24T03:23:06.117Z,94852.38
2024-02-24T03:25:33.412Z,94859.75
2024-02-24T03:28:00.329Z,94861.19
2024-02-24T03:30:29.994Z,94871.68
2024-02-24T03:32:57.398Z,94881.91
2024-02-24T03:35:30.293Z,94890.15
2024-02-24T03:37:57.998Z,94881.41
2024-02-24T03:40:24.958Z,94881.61
2024-02-24T03:42:58.026Z,94889.67
2024-02-24T03:45:24.930Z,94893.61
2024-02-24T03:47:52.567Z,94895.90
2024-02-24T03:50:28.405Z,94909.91
2024-02-24T03:52:55.319Z,94905.04
2024-02-24T03:55:22.413Z,94901.37
2024-02-24T03:57:49.357Z,94909.30
2024-02-24T04:00:17.036Z,94905.83
2024-02-24T04:02:44.728Z,94902.80
2024-02-24T04:05:12.757Z,94900.98
2024-02-24T04:07:40.495Z,94909.23
2024-02-24T04:10:08.060Z,94914.19
2024-02-24T04:12:35.634Z,94911.86
2024-02-24T04:15:02.683Z,94910.22
2024-02-24T04:17:29.752Z,94910.66
2024-02-24T04:19:56.958Z,94905.00
2024-02-24T04:22:24.012Z,94912.78
2024-02-24T04:24:51.078Z,94922.08
2024-02-24T04:27:17.980Z,94929.00
2024-02-24T04:29:47.919Z,94925.41
2024-02-24T04:32:18.404Z,94935.89
2024-02-24T04:34:45.457Z,94943.69
2024-02-24T04:37:12.695Z,94941.21
2024-02-24T04:39:39.828Z,94947.52
2024-02-24T04:42:07.865Z,94941.20
2024-02-24T04:44:37.588Z,94934.66
2024-02-24T04:47:04.546Z,94934.45
2024-02-24T04:49:31.498Z,94939.95
2024-02-24T04:51:58.314Z,94932.77
2024-02-24T04:54:25.388Z,94931.66
2024-02-24T04:56:52.227Z,94938.21
2024-02-24T04:59:19.311Z,94947.58
2024-02-24T05:01:49.186Z,94910.31
2024-02-24T05:04:16.272Z,94920.84
2024-02-24T05:06:43.623Z,94931.52
2024-02-24T05:09:13.364Z,94937.63
2024-02-24T05:11:50.978Z,94949.19
2024-02-24T05:14:19.271Z,94949.81
2024-02-24T05:16:46.383Z,94952.27
2024-02-24T05:19:15.973Z,94968.73
2024-02-24T05:21:44.239Z,94987.16
2024-02-24T05:24:11.412Z,94984.03
2024-02-24T05:26:38.391Z,94976.86
2024-02-24T05:29:05.534Z,94990.52
2024-02-24T05:31:32.485Z,94999.77
2024-02-24T05:34:03.431Z,94996.42
2024-02-24T05:36:32.627Z,94997.59
2024-02-24T05:39:07.866Z,94995.27
2024-02-24T05:41:35.044Z,95000.17
2024-02-24T05:44:04.737Z,95008.66
2024-02-24T05:46:32.058Z,95022.64
2024-02-24T05:49:02.425Z,95024.34
2024-02-24T05:51:29.333Z,95030.64
2024-02-24T05:54:00.102Z,95035.22
2024-02-24T05:56:29.430Z,95034.92
2024-02-24T05:58:56.280Z,95030.03
2024-02-24T06:01:28.131Z,95032.13
2024-02-24T06:03:57.544Z,95036.55
2024-02-24T06:06:26.744Z,95044.00
2024-02-24T06:08:54.420Z,95040.77
2024-02-24T06:11:21.565Z,95056.23
2024-02-24T06:13:48.898Z,95049.09
2024-02-24T06:16:18.897Z,95050.47
2024-02-24T06:18:46.051Z,95061.05
2024-02-24T06:21:16.104Z,95057.98
2024-02-24T06:23:46.224Z,95055.77
2024-02-24T06:26:13.226Z,95057.20
2024-02-24T06:28:40.065Z,95057.77
2024-02-24T06:31:07.142Z,95057.31
2024-02-24T06:33:34.160Z,95053.94
2024-02-24T06:36:03.232Z,95055.02
2024-02-24T06:38:30.264Z,95046.02
2024-02-24T06:40:57.167Z,95045.30
2024-02-24T06:43:24.018Z,95041.22
2024-02-24T06:45:50.859Z,95033.55
2024-02-24T06:48:17.983Z,95037.90
2024-02-24T06:50:45.536Z,95041.86
2024-02-24T06:53:12.602Z,95041.84
2024-02-24T06:55:39.602Z,95039.52
2024-02-24T06:58:06.429Z,95036.88
2024-02-24T07:00:33.304Z,95040.11
2024-02-24T07:03:00.760Z,95034.73
2024-02-24T07:05:27.728Z,95035.29
2024-02-24T07:07:56.969Z,95039.77
2024-02-24T07:10:26.809Z,95049.68
2024-02-24T07:13:02.791Z,95042.35
2024-02-24T07:15:29.892Z,95033.62
2024-02-24T07:17:57.007Z,95033.27
2024-02-24T07:20:24.057Z,95031.13
2024-02-24T07:22:51.020Z,95031.27
2024-02-24T07:25:18.055Z,95025.91
2024-02-24T07:27:44.921Z,95031.29
2024-02-24T07:30:12.178Z,95033.39
2024-02-24T07:32:41.300Z,95032.06
2024-02-24T07:35:09.923Z,95032.73
2024-02-24T07:37:36.877Z,95035.38
2024-02-24T07:40:04.000Z,95042.12
2024-02-24T07:42:31.680Z,95052.20
2024-02-24T07:44:58.698Z,95054.73
2024-02-24T07:47:25.676Z,95053.42
2024-02-24T07:49:53.038Z,95057.55
2024-02-24T07:52:20.005Z,95060.33
2024-02-24T07:54:47.081Z,95061.98
2024-02-24T07:57:13.987Z,95055.96
2024-02-24T07:59:40.946Z,95048.48
2024-02-24T08:02:07.875Z,95049.59
2024-02-24T08:04:34.785Z,95059.98
2024-02-24T08:07:01.724Z,95060.70
2024-02-24T08:09:28.581Z,95064.88
2024-02-24T08:11:55.734Z,95061.52
2024-02-24T08:14:24.866Z,95057.28
2024-02-24T08:16:51.729Z,95056.44
2024-02-24T08:19:18.750Z,95057.70
2024-02-24T08:21:48.705Z,95060.71
2024-02-24T08:24:17.731Z,95059.50
2024-02-24T08:26:46.905Z,95061.55
2024-02-24T08:29:13.886Z,95062.98
2024-02-24T08:31:44.208Z,95067.75
2024-02-24T08:34:11.691Z,95064.69
2024-02-24T08:36:39.394Z,95064.28
2024-02-24T08:39:07.312Z,95067.92
2024-02-24T08:41:37.500Z,95063.48
2024-02-24T08:44:06.559Z,95065.80
2024-02-24T08:46:34.841Z,95065.77
2024-02-24T08:49:01.965Z,95068.67
2024-02-24T08:51:31.049Z,95063.32
2024-02-24T08:53:57.875Z,95064.42
2024-02-24T08:56:26.501Z,95071.35
2024-02-24T08:58:53.817Z,95072.48
2024-02-24T09:01:20.843Z,95069.50
2024-02-24T09:03:47.903Z,95075.70
2024-02-24T09:06:15.989Z,95076.77
2024-02-24T09:08:43.653Z,95076.69
2024-02-24T09:11:10.966Z,95071.79
2024-02-24T09:13:38.014Z,95070.19
2024-02-24T09:16:05.199Z,95070.84
2024-02-24T09:18:32.814Z,95076.63
2024-02-24T09:20:59.754Z,95065.09
2024-02-24T09:23:35.933Z,95069.52
2024-02-24T09:26:03.566Z,95069.80
2024-02-24T09:28:30.552Z,95075.44
2024-02-24T09:30:57.456Z,95064.14
2024-02-24T09:33:24.488Z,95059.86
2024-02-24T09:35:51.566Z,95064.71
2024-02-24T09:38:18.438Z,95064.33
2024-02-24T09:40:45.335Z,95058.26
2024-02-24T09:43:26.612Z,95056.87
2024-02-24T09:45:55.312Z,95063.27
2024-02-24T09:48:31.167Z,95067.38
2024-02-24T09:51:03.031Z,95069.27
2024-02-24T09:53:30.137Z,95061.03
2024-02-24T09:55:59.291Z,95063.29
2024-02-24T09:58:28.966Z,95060.20
2024-02-24T10:00:55.942Z,95063.73
2024-02-24T10:03:26.500Z,95061.48
2024-02-24T10:05:53.568Z,95064.52
2024-02-24T10:08:41.499Z,95063.08
2024-02-24T10:11:12.664Z,95060.27
2024-02-24T10:13:44.368Z,95059.61
2024-02-24T10:16:12.701Z,95066.64
2024-02-24T10:18:46.086Z,95058.98
2024-02-24T10:21:13.097Z,95054.48
2024-02-24T10:23:50.219Z,95059.78
2024-02-24T10:26:17.184Z,95054.00
2024-02-24T10:28:47.213Z,95047.95
2024-02-24T10:31:15.581Z,95048.61
2024-02-24T10:33:43.439Z,95043.66
2024-02-24T10:36:11.528Z,95042.55
2024-02-24T10:38:48.073Z,95043.96
2024-02-24T10:41:23.516Z,95045.60
2024-02-24T10:44:02.353Z,95051.21
2024-02-24T10:46:37.631Z,95049.88
2024-02-24T10:49:12.570Z,95047.67
2024-02-24T10:51:39.937Z,95051.31
2024-02-24T10:54:17.561Z,95049.98
2024-02-24T10:56:46.463Z,95052.70
2024-02-24T10:59:13.613Z,95047.53
2024-02-24T11:01:47.166Z,95042.38
2024-02-24T11:04:17.861Z,95040.33
2024-02-24T11:06:53.557Z,95040.58
2024-02-24T11:09:31.533Z,95041.55
2024-02-24T11:12:21.399Z,95041.27
2024-02-24T11:14:49.296Z,95042.20
2024-02-24T11:17:45.927Z,95039.56
2024-02-24T11:20:13.649Z,95041.89
2024-02-24T11:22:40.600Z,95039.13
2024-02-24T11:25:07.610Z,95041.66
2024-02-24T11:27:43.466Z,95050.61
2024-02-24T11:30:35.260Z,95046.81
2024-02-24T11:33:25.152Z,95042.15
2024-02-24T11:35:53.357Z,95038.67
2024-02-24T11:38:20.938Z,95036.48
2024-02-24T11:40:49.634Z,95029.89
2024-02-24T11:43:21.499Z,95032.75
2024-02-24T11:45:56.412Z,95034.46
2024-02-24T11:48:34.668Z,95033.12
2024-02-24T11:51:01.757Z,95025.46
2024-02-24T11:53:32.219Z,95027.37
2024-02-24T11:56:01.698Z,95026.39
2024-02-24T11:58:28.767Z,95021.28
2024-02-24T12:00:58.583Z,95024.66
2024-02-24T12:03:25.684Z,95022.66
2024-02-24T12:06:06.242Z,95025.94
2024-02-24T12:08:35.294Z,95019.55
2024-02-24T12:11:02.538Z,95017.35
2024-02-24T12:13:29.512Z,95021.12
2024-02-24T12:16:01.683Z,95016.55
2024-02-24T12:18:30.724Z,95015.90
2024-02-24T12:21:02.890Z,95019.26
2024-02-24T12:23:34.981Z,95013.84
2024-02-24T12:26:24.722Z,95017.37
2024-02-24T12:28:52.365Z,95015.89
2024-02-24T12:31:19.822Z,95010.02
2024-02-24T12:33:47.544Z,95011.92
2024-02-24T12:36:19.888Z,95014.19
2024-02-24T12:38:49.953Z,95016.88
2024-02-24T12:41:17.525Z,95017.73
2024-02-24T12:43:46.651Z,95013.38
2024-02-24T12:46:13.796Z,95009.02
2024-02-24T12:48:43.747Z,95007.55
2024-02-24T12:51:16.348Z,95008.87
2024-02-24T12:53:43.635Z,95008.46
2024-02-24T12:56:10.730Z,95005.61
2024-02-24T12:58:40.157Z,95009.39
2024-02-24T13:01:14.004Z,95013.60
2024-02-24T13:03:40.984Z,95017.52
2024-02-24T13:06:08.078Z,95016.23
2024-02-24T13:08:35.424Z,95015.59
2024-02-24T13:11:02.780Z,95013.01
2024-02-24T13:13:30.007Z,95018.33
2024-02-24T13:15:57.001Z,95023.25
2024-02-24T13:18:24.201Z,95009.55
2024-02-24T13:20:51.309Z,95002.72
2024-02-24T13:23:18.535Z,95006.16
2024-02-24T13:25:48.260Z,95000.83
2024-02-24T13:28:15.231Z,95005.05
2024-02-24T13:30:42.394Z,95004.19
2024-02-24T13:33:11.645Z,95003.04
2024-02-24T13:35:38.629Z,95000.48
2024-02-24T13:38:05.750Z,94998.17
2024-02-24T13:40:32.952Z,95002.86
2024-02-24T13:43:01.337Z,95007.11
2024-02-24T13:45:30.754Z,95008.61
2024-02-24T13:48:00.927Z,94996.89
2024-02-24T13:50:28.300Z,94998.88
2024-02-24T13:52:55.892Z,95001.56
2024-02-24T13:55:34.322Z,95004.56
2024-02-24T13:58:04.370Z,95009.40
2024-02-24T14:00:31.456Z,95009.81
2024-02-24T14:03:00.652Z,95004.99
2024-02-24T14:06:04.018Z,95008.42
2024-02-24T14:08:29.081Z,95008.73
2024-02-24T14:10:56.009Z,95005.80
2024-02-24T14:13:23.050Z,95007.23
2024-02-24T14:15:53.029Z,95001.07
2024-02-24T14:18:22.977Z,95001.70
2024-02-24T14:20:49.879Z,95008.42
2024-02-24T14:23:16.852Z,95006.13
2024-02-24T14:25:43.771Z,94999.92
2024-02-24T14:28:11.868Z,95005.38
2024-02-24T14:30:39.687Z,95000.86
2024-02-24T14:33:10.305Z,94997.17
2024-02-24T14:35:44.657Z,94999.61
2024-02-24T14:38:11.665Z,95006.45
2024-02-24T14:40:38.854Z,95005.35
2024-02-24T14:43:06.520Z,95009.55
2024-02-24T14:45:33.412Z,95002.36
2024-02-24T14:48:05.606Z,95000.23
2024-02-24T14:50:33.404Z,95009.20
2024-02-24T14:53:00.815Z,95004.94
2024-02-24T14:55:27.690Z,95006.16
2024-02-24T14:57:54.827Z,95015.39
2024-02-24T15:00:27.434Z,95019.17
2024-02-24T15:03:08.315Z,95014.10
2024-02-24T15:05:37.656Z,95019.73
2024-02-24T15:08:05.095Z,95024.16
2024-02-24T15:10:32.579Z,95025.69
2024-02-24T15:12:59.380Z,95024.97
2024-02-24T15:15:26.340Z,95028.29
2024-02-24T15:17:54.332Z,95019.30
2024-02-24T15:20:21.810Z,95027.04
2024-02-24T15:22:49.772Z,95026.94
2024-02-24T15:25:16.898Z,95025.49
2024-02-24T15:27:43.865Z,95023.27
2024-02-24T15:30:11.660Z,95024.46
2024-02-24T15:32:38.745Z,95026.39
2024-02-24T15:35:06.772Z,95029.21
2024-02-24T15:37:36.518Z,95033.38
2024-02-24T15:40:08.885Z,95027.41
2024-02-24T15:42:36.796Z,95022.98
2024-02-24T15:45:04.945Z,95028.46
2024-02-24T15:47:32.023Z,95025.08
2024-02-24T15:49:58.999Z,95033.62
2024-02-24T15:52:26.011Z,95038.83
2024-02-24T15:54:54.436Z,95035.94
2024-02-24T15:57:21.328Z,95050.77
2024-02-24T15:59:48.258Z,95050.16
2024-02-24T16:02:16.122Z,95048.59
2024-02-24T16:04:43.803Z,95052.79
2024-02-24T16:07:10.965Z,95051.71
2024-02-24T16:09:38.130Z,95051.27
2024-02-24T16:12:06.168Z,95054.01
2024-02-24T16:14:33.209Z,95050.73
2024-02-24T16:17:03.933Z,95051.73
2024-02-24T16:19:31.230Z,95056.48
2024-02-24T16:21:58.271Z,95059.26
2024-02-24T16:24:36.021Z,95066.40
2024-02-24T16:27:15.603Z,95067.04
2024-02-24T16:30:33.408Z,95069.07
2024-02-24T16:33:12.069Z,95065.00
2024-02-24T16:35:48.218Z,95070.26
2024-02-24T16:38:15.208Z,95074.85
2024-02-24T16:40:43.037Z,95068.96
2024-02-24T16:43:13.238Z,95066.45
2024-02-24T16:45:40.030Z,95067.18
2024-02-24T16:48:07.457Z,95062.20
2024-02-24T16:50:34.667Z,95063.97
2024-02-24T16:53:01.597Z,95066.05
2024-02-24T16:55:28.511Z,95065.91
2024-02-24T16:57:55.446Z,95066.48
2024-02-24T17:00:27.343Z,95062.20
2024-02-24T17:02:54.348Z,95059.31
2024-02-24T17:05:22.241Z,95057.78
2024-02-24T17:07:56.808Z,95054.39
2024-02-24T17:10:24.019Z,95057.42
2024-02-24T17:12:53.493Z,95057.30
2024-02-24T17:15:23.558Z,95055.87
2024-02-24T17:17:51.019Z,95056.92
2024-02-24T17:20:18.248Z,95059.81
2024-02-24T17:22:47.723Z,95063.48
2024-02-24T17:25:16.837Z,95064.23
2024-02-24T17:27:45.929Z,95065.34
2024-02-24T17:30:14.721Z,95068.23
2024-02-24T17:32:47.154Z,95068.30
2024-02-24T17:35:14.266Z,95073.47
2024-02-24T17:37:41.411Z,95077.80
2024-02-24T17:40:09.683Z,95079.54
2024-02-24T17:42:36.910Z,95086.80
2024-02-24T17:45:06.813Z,95086.46
2024-02-24T17:47:33.820Z,95097.34
2024-02-24T17:50:01.157Z,95103.70
2024-02-24T17:52:28.285Z,95102.36
2024-02-24T17:54:56.682Z,95094.03
2024-02-24T17:57:23.748Z,95090.52
2024-02-24T17:59:50.750Z,95093.36
2024-02-24T18:02:17.628Z,95094.14
2024-02-24T18:04:47.292Z,95098.46
2024-02-24T18:07:14.397Z,95109.67
2024-02-24T18:09:41.472Z,95107.09
2024-02-24T18:12:09.090Z,95098.48
2024-02-24T18:14:37.218Z,95081.77
2024-02-24T18:17:04.618Z,95074.48
2024-02-24T18:19:32.140Z,95093.55
2024-02-24T18:22:04.063Z,95097.00
2024-02-24T18:24:31.192Z,95095.03
2024-02-24T18:26:58.771Z,95100.11
2024-02-24T18:29:27.174Z,95103.20
2024-02-24T18:31:54.388Z,95099.14
2024-02-24T18:34:24.675Z,95093.43
2024-02-24T18:36:51.881Z,95099.09
2024-02-24T18:39:18.776Z,95100.18
2024-02-24T18:41:45.964Z,95100.84
2024-02-24T18:44:16.067Z,95100.09
2024-02-24T18:46:46.025Z,95099.99
2024-02-24T18:49:13.080Z,95099.86
2024-02-24T18:51:40.087Z,95098.23
2024-02-24T18:54:10.986Z,95098.95
2024-02-24T18:56:38.789Z,95099.23
2024-02-24T18:59:08.420Z,95103.34
2024-02-24T19:01:35.382Z,95116.19
2024-02-24T19:04:05.168Z,95116.59
2024-02-24T19:06:32.433Z,95116.77
2024-02-24T19:09:00.695Z,95114.96
2024-02-24T19:11:29.533Z,95107.57
2024-02-24T19:14:02.414Z,95100.41
2024-02-24T19:16:30.514Z,95101.19
2024-02-24T19:18:58.237Z,95111.48
2024-02-24T19:21:28.337Z,95125.95
2024-02-24T19:23:55.553Z,95141.08
2024-02-24T19:26:23.866Z,95143.08
2024-02-24T19:28:51.468Z,95155.91
2024-02-24T19:31:21.155Z,95155.84
2024-02-24T19:33:48.279Z,95153.65
2024-02-24T19:36:20.176Z,95157.36
2024-02-24T19:38:50.471Z,95160.23
2024-02-24T19:41:23.133Z,95158.98
2024-02-24T19:43:50.390Z,95165.48
2024-02-24T19:46:19.979Z,95165.30
2024-02-24T19:48:47.038Z,95183.60
2024-02-24T19:51:14.155Z,95189.06
2024-02-24T19:53:41.569Z,95176.45
2024-02-24T19:56:08.454Z,95168.93
2024-02-24T19:58:39.613Z,95167.35
2024-02-24T20:01:12.923Z,95168.13
2024-02-24T20:03:41.312Z,95171.14
2024-02-24T20:06:08.966Z,95170.41
2024-02-24T20:08:36.229Z,95171.99
2024-02-24T20:11:03.294Z,95173.65
2024-02-24T20:13:30.125Z,95166.08
2024-02-24T20:15:56.929Z,95172.46
2024-02-24T20:18:26.766Z,95171.74
2024-02-24T20:20:54.213Z,95173.30
2024-02-24T20:23:23.847Z,95179.61
2024-02-24T20:25:54.818Z,95177.76
2024-02-24T20:28:21.822Z,95184.30
2024-02-24T20:30:49.801Z,95189.66
2024-02-24T20:33:16.833Z,95193.45
2024-02-24T20:35:43.858Z,95190.79
2024-02-24T20:38:10.887Z,95201.09
2024-02-24T20:40:38.317Z,95202.88
2024-02-24T20:43:07.649Z,95191.67
2024-02-24T20:45:34.503Z,95196.59
2024-02-24T20:48:01.712Z,95182.63
2024-02-24T20:50:31.341Z,95185.17
2024-02-24T20:52:58.850Z,95181.34
2024-02-24T20:55:26.578Z,95180.43
2024-02-24T20:57:55.521Z,95189.20
2024-02-24T21:00:22.464Z,95186.42
2024-02-24T21:02:49.589Z,95184.84
2024-02-24T21:05:16.765Z,95185.50
2024-02-24T21:07:45.503Z,95177.58
2024-02-24T21:10:12.609Z,95162.38
2024-02-24T21:12:39.693Z,95157.96
2024-02-24T21:15:07.607Z,95168.57
2024-02-24T21:17:35.714Z,95182.34
2024-02-24T21:20:06.324Z,95165.45
2024-02-24T21:22:34.225Z,95164.66
2024-02-24T21:25:01.288Z,95175.45
2024-02-24T21:27:28.159Z,95183.94
2024-02-24T21:29:55.037Z,95189.09
2024-02-24T21:32:22.324Z,95184.69
2024-02-24T21:34:49.859Z,95178.66
2024-02-24T21:37:21.542Z,95178.37
2024-02-24T21:39:51.660Z,95185.21
2024-02-24T21:42:18.881Z,95187.14
2024-02-24T21:44:48.928Z,95180.98
2024-02-24T21:47:15.782Z,95177.27
2024-02-24T21:49:42.548Z,95171.10
2024-02-24T21:52:09.537Z,95173.14
2024-02-24T21:54:36.529Z,95172.77
2024-02-24T21:57:03.857Z,95168.08
2024-02-24T21:59:31.203Z,95164.17
2024-02-24T22:02:01.257Z,95161.42
2024-02-24T22:04:29.589Z,95166.19
2024-02-24T22:06:56.538Z,95162.44
2024-02-24T22:09:23.900Z,95166.80
2024-02-24T22:11:50.851Z,95162.82
2024-02-24T22:14:22.586Z,95161.70
2024-02-24T22:16:50.138Z,95157.70
2024-02-24T22:19:17.545Z,95155.29
2024-02-24T22:21:45.206Z,95153.31
2024-02-24T22:24:12.308Z,95154.11
2024-02-24T22:26:40.501Z,95156.35
2024-02-24T22:29:07.572Z,95161.23
2024-02-24T22:31:37.749Z,95152.69
2024-02-24T22:34:05.090Z,95152.31
2024-02-24T22:36:32.257Z,95164.77
2024-02-24T22:38:59.356Z,95163.70
2024-02-24T22:41:26.685Z,95155.86
2024-02-24T22:43:56.225Z,95161.02
2024-02-24T22:46:24.440Z,95159.20
2024-02-24T22:48:51.760Z,95143.58
2024-02-24T22:51:20.038Z,95150.46
2024-02-24T22:53:47.099Z,95153.80
2024-02-24T22:56:14.314Z,95145.11
2024-02-24T22:58:50.394Z,95137.54
2024-02-24T23:01:17.334Z,95134.69
2024-02-24T23:03:44.624Z,95137.59
2024-02-24T23:06:12.387Z,95141.88
2024-02-24T23:08:42.139Z,95143.52
2024-02-24T23:11:09.296Z,95146.34
2024-02-24T23:13:39.251Z,95134.16
2024-02-24T23:16:06.566Z,95126.90
2024-02-24T23:18:34.429Z,95134.38
2024-02-24T23:21:03.886Z,95143.56
2024-02-24T23:23:33.526Z,95135.14
2024-02-24T23:26:01.785Z,95128.66
2024-02-24T23:28:28.761Z,95128.40
2024-02-24T23:30:57.172Z,95142.13
2024-02-24T23:33:26.651Z,95148.41
2024-02-24T23:35:56.538Z,95157.20
2024-02-24T23:38:23.621Z,95154.30
2024-02-24T23:40:50.494Z,95155.36
2024-02-24T23:43:17.269Z,95157.89
2024-02-24T23:45:44.350Z,95152.11
2024-02-24T23:48:11.571Z,95140.35
2024-02-24T23:50:38.827Z,95136.77
2024-02-24T23:53:05.867Z,95139.38
2024-02-24T23:55:32.915Z,95134.21
2024-02-24T23:57:59.761Z,95138.65
